sensor_id;sensor_type;location;lat;lon;timestamp;temperature;humidity
68922;DHT22;55959;51.244;5.724;2022-11-06T00:01:12;12.50;70.90
68922;DHT22;55959;51.244;5.724;2022-11-06T00:03:39;12.50;70.90
68922;DHT22;55959;51.244;5.724;2022-11-06T00:06:10;12.50;70.80
68922;DHT22;55959;51.244;5.724;2022-11-06T00:08:58;12.50;70.70
68922;DHT22;55959;51.244;5.724;2022-11-06T00:11:25;12.50;70.70
68922;DHT22;55959;51.244;5.724;2022-11-06T00:13:51;12.50;70.70
68922;DHT22;55959;51.244;5.724;2022-11-06T00:16:17;12.50;70.70
68922;DHT22;55959;51.244;5.724;2022-11-06T00:18:44;12.50;70.70
68922;DHT22;55959;51.244;5.724;2022-11-06T00:21:18;12.50;70.70
68922;DHT22;55959;51.244;5.724;2022-11-06T00:23:47;12.50;70.60
68922;DHT22;55959;51.244;5.724;2022-11-06T00:26:15;12.50;70.50
68922;DHT22;55959;51.244;5.724;2022-11-06T00:28:43;12.40;70.50
68922;DHT22;55959;51.244;5.724;2022-11-06T00:31:15;12.50;70.50
68922;DHT22;55959;51.244;5.724;2022-11-06T00:33:43;12.50;70.60
68922;DHT22;55959;51.244;5.724;2022-11-06T00:36:12;12.50;70.50
68922;DHT22;55959;51.244;5.724;2022-11-06T00:38:40;12.50;70.50
68922;DHT22;55959;51.244;5.724;2022-11-06T00:41:08;12.40;70.40
68922;DHT22;55959;51.244;5.724;2022-11-06T00:43:41;12.50;70.50
68922;DHT22;55959;51.244;5.724;2022-11-06T00:46:12;12.40;70.30
68922;DHT22;55959;51.244;5.724;2022-11-06T00:48:39;12.50;70.50
68922;DHT22;55959;51.244;5.724;2022-11-06T00:51:27;12.50;70.40
68922;DHT22;55959;51.244;5.724;2022-11-06T00:53:55;12.40;70.40
68922;DHT22;55959;51.244;5.724;2022-11-06T00:56:25;12.40;71.30
68922;DHT22;55959;51.244;5.724;2022-11-06T00:58:51;12.40;70.30
68922;DHT22;55959;51.244;5.724;2022-11-06T01:01:28;12.40;70.40
68922;DHT22;55959;51.244;5.724;2022-11-06T01:04:00;12.40;70.40
68922;DHT22;55959;51.244;5.724;2022-11-06T01:06:37;12.40;70.40
68922;DHT22;55959;51.244;5.724;2022-11-06T01:09:05;12.40;70.40
68922;DHT22;55959;51.244;5.724;2022-11-06T01:11:43;12.40;70.50
68922;DHT22;55959;51.244;5.724;2022-11-06T01:14:13;12.40;70.50
68922;DHT22;55959;51.244;5.724;2022-11-06T01:16:39;12.40;70.50
68922;DHT22;55959;51.244;5.724;2022-11-06T01:19:06;12.40;71.40
68922;DHT22;55959;51.244;5.724;2022-11-06T01:21:35;12.40;70.50
68922;DHT22;55959;51.244;5.724;2022-11-06T01:24:06;12.40;70.50
68922;DHT22;55959;51.244;5.724;2022-11-06T01:26:36;12.40;70.60
68922;DHT22;55959;51.244;5.724;2022-11-06T01:29:03;12.40;70.50
68922;DHT22;55959;51.244;5.724;2022-11-06T01:31:31;12.40;70.60
68922;DHT22;55959;51.244;5.724;2022-11-06T01:33:59;12.40;70.60
68922;DHT22;55959;51.244;5.724;2022-11-06T01:36:26;12.40;70.70
68922;DHT22;55959;51.244;5.724;2022-11-06T01:38:54;12.40;70.70
68922;DHT22;55959;51.244;5.724;2022-11-06T01:41:32;12.40;70.80
68922;DHT22;55959;51.244;5.724;2022-11-06T01:50:04;12.40;71.00
68922;DHT22;55959;51.244;5.724;2022-11-06T01:52:33;12.30;71.10
68922;DHT22;55959;51.244;5.724;2022-11-06T01:55:23;12.30;71.20
68922;DHT22;55959;51.244;5.724;2022-11-06T01:57:50;12.30;71.40
68922;DHT22;55959;51.244;5.724;2022-11-06T02:00:17;12.30;71.30
68922;DHT22;55959;51.244;5.724;2022-11-06T02:02:44;12.40;71.40
68922;DHT22;55959;51.244;5.724;2022-11-06T02:05:10;12.30;71.40
68922;DHT22;55959;51.244;5.724;2022-11-06T02:07:36;12.40;71.50
68922;DHT22;55959;51.244;5.724;2022-11-06T02:10:04;12.40;71.50
68922;DHT22;55959;51.244;5.724;2022-11-06T02:12:53;12.40;71.60
68922;DHT22;55959;51.244;5.724;2022-11-06T02:15:58;12.40;71.60
68922;DHT22;55959;51.244;5.724;2022-11-06T02:24:44;12.40;71.70
68922;DHT22;55959;51.244;5.724;2022-11-06T02:27:11;12.50;71.80
68922;DHT22;55959;51.244;5.724;2022-11-06T02:30:02;12.50;71.70
68922;DHT22;55959;51.244;5.724;2022-11-06T02:38:07;12.50;71.70
68922;DHT22;55959;51.244;5.724;2022-11-06T02:40:45;12.50;71.70
68922;DHT22;55959;51.244;5.724;2022-11-06T02:43:15;12.60;71.80
68922;DHT22;55959;51.244;5.724;2022-11-06T02:45:53;12.60;71.70
68922;DHT22;55959;51.244;5.724;2022-11-06T02:48:27;12.60;71.70
68922;DHT22;55959;51.244;5.724;2022-11-06T02:50:58;12.60;71.70
68922;DHT22;55959;51.244;5.724;2022-11-06T02:53:26;12.70;71.70
68922;DHT22;55959;51.244;5.724;2022-11-06T02:56:10;12.60;71.60
68922;DHT22;55959;51.244;5.724;2022-11-06T02:58:50;12.70;71.70
68922;DHT22;55959;51.244;5.724;2022-11-06T03:01:27;12.70;71.70
68922;DHT22;55959;51.244;5.724;2022-11-06T03:03:58;12.70;71.60
68922;DHT22;55959;51.244;5.724;2022-11-06T03:06:37;12.70;71.60
68922;DHT22;55959;51.244;5.724;2022-11-06T03:09:20;12.70;71.50
68922;DHT22;55959;51.244;5.724;2022-11-06T03:11:56;12.80;71.60
68922;DHT22;55959;51.244;5.724;2022-11-06T03:14:33;12.80;71.60
68922;DHT22;55959;51.244;5.724;2022-11-06T03:17:17;12.80;71.60
68922;DHT22;55959;51.244;5.724;2022-11-06T03:19:56;12.80;71.70
68922;DHT22;55959;51.244;5.724;2022-11-06T03:22:41;12.80;71.70
68922;DHT22;55959;51.244;5.724;2022-11-06T03:25:34;12.80;71.60
68922;DHT22;55959;51.244;5.724;2022-11-06T03:28:17;12.80;71.60
68922;DHT22;55959;51.244;5.724;2022-11-06T03:30:54;12.80;71.70
68922;DHT22;55959;51.244;5.724;2022-11-06T03:33:41;12.80;71.70
68922;DHT22;55959;51.244;5.724;2022-11-06T03:36:18;12.80;71.80
68922;DHT22;55959;51.244;5.724;2022-11-06T03:38:50;12.90;71.80
68922;DHT22;55959;51.244;5.724;2022-11-06T03:41:23;12.90;71.80
68922;DHT22;55959;51.244;5.724;2022-11-06T03:43:55;12.90;71.80
68922;DHT22;55959;51.244;5.724;2022-11-06T03:46:23;12.90;71.80
68922;DHT22;55959;51.244;5.724;2022-11-06T03:48:57;12.90;71.70
68922;DHT22;55959;51.244;5.724;2022-11-06T03:51:39;13.00;71.70
68922;DHT22;55959;51.244;5.724;2022-11-06T03:54:28;12.90;71.50
68922;DHT22;55959;51.244;5.724;2022-11-06T03:56:58;12.90;71.50
68922;DHT22;55959;51.244;5.724;2022-11-06T03:59:32;12.90;71.40
68922;DHT22;55959;51.244;5.724;2022-11-06T04:02:01;12.90;71.40
68922;DHT22;55959;51.244;5.724;2022-11-06T04:04:32;12.90;71.40
68922;DHT22;55959;51.244;5.724;2022-11-06T04:07:14;12.90;71.40
68922;DHT22;55959;51.244;5.724;2022-11-06T04:09:46;12.90;71.40
68922;DHT22;55959;51.244;5.724;2022-11-06T04:12:35;12.90;71.40
68922;DHT22;55959;51.244;5.724;2022-11-06T04:15:22;12.90;71.40
68922;DHT22;55959;51.244;5.724;2022-11-06T04:17:48;12.90;71.40
68922;DHT22;55959;51.244;5.724;2022-11-06T04:20:18;12.90;71.60
68922;DHT22;55959;51.244;5.724;2022-11-06T04:26:19;12.90;71.60
68922;DHT22;55959;51.244;5.724;2022-11-06T04:34:37;12.80;71.60
68922;DHT22;55959;51.244;5.724;2022-11-06T04:37:21;12.80;71.60
68922;DHT22;55959;51.244;5.724;2022-11-06T04:42:53;12.80;71.80
68922;DHT22;55959;51.244;5.724;2022-11-06T04:45:37;12.80;71.80
68922;DHT22;55959;51.244;5.724;2022-11-06T04:48:06;12.80;71.80
68922;DHT22;55959;51.244;5.724;2022-11-06T04:50:42;12.70;71.70
68922;DHT22;55959;51.244;5.724;2022-11-06T04:53:11;12.70;71.70
68922;DHT22;55959;51.244;5.724;2022-11-06T04:55:47;12.70;71.70
68922;DHT22;55959;51.244;5.724;2022-11-06T04:58:19;12.70;71.70
68922;DHT22;55959;51.244;5.724;2022-11-06T05:00:47;12.70;71.70
68922;DHT22;55959;51.244;5.724;2022-11-06T05:03:14;12.60;71.70
68922;DHT22;55959;51.244;5.724;2022-11-06T05:05:41;12.60;71.70
68922;DHT22;55959;51.244;5.724;2022-11-06T05:08:13;12.60;71.80
68922;DHT22;55959;51.244;5.724;2022-11-06T05:10:41;12.60;71.90
68922;DHT22;55959;51.244;5.724;2022-11-06T05:13:07;12.60;71.90
68922;DHT22;55959;51.244;5.724;2022-11-06T05:15:33;12.60;72.00
68922;DHT22;55959;51.244;5.724;2022-11-06T05:17:59;12.60;72.10
68922;DHT22;55959;51.244;5.724;2022-11-06T05:20:24;12.60;72.10
68922;DHT22;55959;51.244;5.724;2022-11-06T05:22:50;12.60;72.20
68922;DHT22;55959;51.244;5.724;2022-11-06T05:25:30;12.60;72.20
68922;DHT22;55959;51.244;5.724;2022-11-06T05:27:56;12.60;73.10
68922;DHT22;55959;51.244;5.724;2022-11-06T05:30:23;12.50;72.10
68922;DHT22;55959;51.244;5.724;2022-11-06T05:32:50;12.60;72.30
68922;DHT22;55959;51.244;5.724;2022-11-06T05:35:18;12.50;72.30
68922;DHT22;55959;51.244;5.724;2022-11-06T05:37:44;12.50;72.30
68922;DHT22;55959;51.244;5.724;2022-11-06T05:40:11;12.50;72.30
68922;DHT22;55959;51.244;5.724;2022-11-06T05:42:41;12.50;72.30
68922;DHT22;55959;51.244;5.724;2022-11-06T05:45:09;12.50;72.30
68922;DHT22;55959;51.244;5.724;2022-11-06T05:47:35;12.50;72.10
68922;DHT22;55959;51.244;5.724;2022-11-06T05:50:04;12.50;72.10
68922;DHT22;55959;51.244;5.724;2022-11-06T05:52:33;12.50;72.10
68922;DHT22;55959;51.244;5.724;2022-11-06T05:54:59;12.50;72.10
68922;DHT22;55959;51.244;5.724;2022-11-06T05:57:25;12.50;72.10
68922;DHT22;55959;51.244;5.724;2022-11-06T05:59:51;12.50;72.10
68922;DHT22;55959;51.244;5.724;2022-11-06T06:02:17;12.50;72.10
68922;DHT22;55959;51.244;5.724;2022-11-06T06:04:42;12.50;72.10
68922;DHT22;55959;51.244;5.724;2022-11-06T06:07:08;12.50;72.10
68922;DHT22;55959;51.244;5.724;2022-11-06T06:09:34;12.50;72.10
68922;DHT22;55959;51.244;5.724;2022-11-06T06:11:59;12.50;72.10
68922;DHT22;55959;51.244;5.724;2022-11-06T06:14:25;12.50;72.20
68922;DHT22;55959;51.244;5.724;2022-11-06T06:16:51;12.40;72.10
68922;DHT22;55959;51.244;5.724;2022-11-06T06:19:17;12.40;72.20
68922;DHT22;55959;51.244;5.724;2022-11-06T06:21:43;12.40;72.30
68922;DHT22;55959;51.244;5.724;2022-11-06T06:24:08;12.50;72.40
68922;DHT22;55959;51.244;5.724;2022-11-06T06:26:34;12.50;72.50
68922;DHT22;55959;51.244;5.724;2022-11-06T06:29:00;12.50;72.50
68922;DHT22;55959;51.244;5.724;2022-11-06T06:31:26;12.50;72.50
68922;DHT22;55959;51.244;5.724;2022-11-06T06:33:52;12.50;72.50
68922;DHT22;55959;51.244;5.724;2022-11-06T06:36:18;12.50;72.50
68922;DHT22;55959;51.244;5.724;2022-11-06T06:38:43;12.50;72.50
68922;DHT22;55959;51.244;5.724;2022-11-06T06:41:10;12.50;72.50
68922;DHT22;55959;51.244;5.724;2022-11-06T06:43:35;12.50;72.60
68922;DHT22;55959;51.244;5.724;2022-11-06T06:46:03;12.60;72.60
68922;DHT22;55959;51.244;5.724;2022-11-06T06:48:30;12.60;72.60
68922;DHT22;55959;51.244;5.724;2022-11-06T06:51:00;12.60;72.50
68922;DHT22;55959;51.244;5.724;2022-11-06T06:53:27;12.60;72.40
68922;DHT22;55959;51.244;5.724;2022-11-06T06:55:56;12.60;72.40
68922;DHT22;55959;51.244;5.724;2022-11-06T06:58:22;12.60;72.30
68922;DHT22;55959;51.244;5.724;2022-11-06T07:00:48;12.70;72.30
68922;DHT22;55959;51.244;5.724;2022-11-06T07:03:14;12.70;72.30
68922;DHT22;55959;51.244;5.724;2022-11-06T07:05:40;12.70;72.30
68922;DHT22;55959;51.244;5.724;2022-11-06T07:08:06;12.70;73.10
68922;DHT22;55959;51.244;5.724;2022-11-06T07:10:31;12.70;72.10
68922;DHT22;55959;51.244;5.724;2022-11-06T07:13:04;12.80;72.10
68922;DHT22;55959;51.244;5.724;2022-11-06T07:15:31;12.80;72.00
68922;DHT22;55959;51.244;5.724;2022-11-06T07:18:02;12.80;72.00
68922;DHT22;55959;51.244;5.724;2022-11-06T07:20:28;12.80;72.00
68922;DHT22;55959;51.244;5.724;2022-11-06T07:22:55;12.80;71.90
68922;DHT22;55959;51.244;5.724;2022-11-06T07:25:20;12.80;71.90
68922;DHT22;55959;51.244;5.724;2022-11-06T07:27:46;12.80;72.00
68922;DHT22;55959;51.244;5.724;2022-11-06T07:30:12;12.80;71.80
68922;DHT22;55959;51.244;5.724;2022-11-06T07:32:37;12.80;71.80
68922;DHT22;55959;51.244;5.724;2022-11-06T07:35:03;12.80;71.70
68922;DHT22;55959;51.244;5.724;2022-11-06T07:37:30;12.80;71.80
68922;DHT22;55959;51.244;5.724;2022-11-06T07:39:56;12.90;71.80
68922;DHT22;55959;51.244;5.724;2022-11-06T07:42:22;12.90;71.80
68922;DHT22;55959;51.244;5.724;2022-11-06T07:44:48;12.90;71.80
68922;DHT22;55959;51.244;5.724;2022-11-06T07:47:14;12.90;71.90
68922;DHT22;55959;51.244;5.724;2022-11-06T07:49:39;12.90;72.00
68922;DHT22;55959;51.244;5.724;2022-11-06T07:52:05;12.90;72.00
68922;DHT22;55959;51.244;5.724;2022-11-06T07:54:31;12.90;72.10
68922;DHT22;55959;51.244;5.724;2022-11-06T07:56:56;12.90;72.00
68922;DHT22;55959;51.244;5.724;2022-11-06T07:59:22;12.90;72.00
68922;DHT22;55959;51.244;5.724;2022-11-06T08:01:48;13.00;72.80
68922;DHT22;55959;51.244;5.724;2022-11-06T08:04:13;13.00;71.80
68922;DHT22;55959;51.244;5.724;2022-11-06T08:06:39;13.00;71.80
68922;DHT22;55959;51.244;5.724;2022-11-06T08:09:06;13.10;71.80
68922;DHT22;55959;51.244;5.724;2022-11-06T08:11:32;13.10;71.70
68922;DHT22;55959;51.244;5.724;2022-11-06T08:13:59;13.10;71.60
68922;DHT22;55959;51.244;5.724;2022-11-06T08:16:25;13.10;71.40
68922;DHT22;55959;51.244;5.724;2022-11-06T08:18:51;13.10;71.40
68922;DHT22;55959;51.244;5.724;2022-11-06T08:21:17;13.20;71.40
68922;DHT22;55959;51.244;5.724;2022-11-06T08:23:43;13.20;72.10
68922;DHT22;55959;51.244;5.724;2022-11-06T08:26:10;13.20;71.10
68922;DHT22;55959;51.244;5.724;2022-11-06T08:28:36;13.20;71.20
68922;DHT22;55959;51.244;5.724;2022-11-06T08:31:06;13.20;71.10
68922;DHT22;55959;51.244;5.724;2022-11-06T08:33:33;13.30;71.10
68922;DHT22;55959;51.244;5.724;2022-11-06T08:36:01;13.30;71.10
68922;DHT22;55959;51.244;5.724;2022-11-06T08:38:28;13.30;71.00
68922;DHT22;55959;51.244;5.724;2022-11-06T08:40:54;13.30;70.80
68922;DHT22;55959;51.244;5.724;2022-11-06T08:43:20;13.30;71.10
68922;DHT22;55959;51.244;5.724;2022-11-06T08:45:48;13.30;70.80
68922;DHT22;55959;51.244;5.724;2022-11-06T08:48:14;13.40;71.50
68922;DHT22;55959;51.244;5.724;2022-11-06T08:50:40;13.40;70.40
68922;DHT22;55959;51.244;5.724;2022-11-06T08:53:06;13.40;70.20
68922;DHT22;55959;51.244;5.724;2022-11-06T08:55:35;13.50;70.20
68922;DHT22;55959;51.244;5.724;2022-11-06T08:58:03;13.50;70.20
68922;DHT22;55959;51.244;5.724;2022-11-06T09:00:30;13.50;70.00
68922;DHT22;55959;51.244;5.724;2022-11-06T09:03:00;13.50;70.20
68922;DHT22;55959;51.244;5.724;2022-11-06T09:05:27;13.60;70.00
68922;DHT22;55959;51.244;5.724;2022-11-06T09:07:56;13.60;69.60
68922;DHT22;55959;51.244;5.724;2022-11-06T09:10:23;13.60;69.60
68922;DHT22;55959;51.244;5.724;2022-11-06T09:12:49;13.70;69.50
68922;DHT22;55959;51.244;5.724;2022-11-06T09:15:15;13.70;69.60
68922;DHT22;55959;51.244;5.724;2022-11-06T09:17:45;13.70;69.40
68922;DHT22;55959;51.244;5.724;2022-11-06T09:20:12;13.80;69.40
68922;DHT22;55959;51.244;5.724;2022-11-06T09:22:38;13.80;70.20
68922;DHT22;55959;51.244;5.724;2022-11-06T09:25:05;13.80;69.20
68922;DHT22;55959;51.244;5.724;2022-11-06T09:27:31;13.90;69.00
68922;DHT22;55959;51.244;5.724;2022-11-06T09:29:57;13.90;68.80
68922;DHT22;55959;51.244;5.724;2022-11-06T09:32:23;13.90;68.70
68922;DHT22;55959;51.244;5.724;2022-11-06T09:34:49;13.90;68.70
68922;DHT22;55959;51.244;5.724;2022-11-06T09:37:15;14.00;68.60
68922;DHT22;55959;51.244;5.724;2022-11-06T09:39:41;14.00;68.20
68922;DHT22;55959;51.244;5.724;2022-11-06T09:45:15;14.10;68.00
68922;DHT22;55959;51.244;5.724;2022-11-06T09:47:53;14.10;67.90
68922;DHT22;55959;51.244;5.724;2022-11-06T09:51:15;14.10;67.60
68922;DHT22;55959;51.244;5.724;2022-11-06T09:54:05;14.10;67.40
68922;DHT22;55959;51.244;5.724;2022-11-06T09:56:39;14.10;67.20
68922;DHT22;55959;51.244;5.724;2022-11-06T09:59:10;14.10;67.30
68922;DHT22;55959;51.244;5.724;2022-11-06T10:01:47;14.10;67.40
68922;DHT22;55959;51.244;5.724;2022-11-06T10:04:39;14.20;67.20
68922;DHT22;55959;51.244;5.724;2022-11-06T10:09:54;14.30;65.60
68922;DHT22;55959;51.244;5.724;2022-11-06T10:15:27;14.30;65.20
68922;DHT22;55959;51.244;5.724;2022-11-06T10:18:28;14.40;65.00
68922;DHT22;55959;51.244;5.724;2022-11-06T10:21:22;14.40;65.20
68922;DHT22;55959;51.244;5.724;2022-11-06T10:23:56;14.40;65.00
68922;DHT22;55959;51.244;5.724;2022-11-06T10:26:39;14.40;64.70
68922;DHT22;55959;51.244;5.724;2022-11-06T10:29:24;14.50;65.00
68922;DHT22;55959;51.244;5.724;2022-11-06T10:34:51;14.50;65.10
68922;DHT22;55959;51.244;5.724;2022-11-06T10:37:28;14.50;64.80
68922;DHT22;55959;51.244;5.724;2022-11-06T10:39:57;14.60;65.00
68922;DHT22;55959;51.244;5.724;2022-11-06T10:42:30;14.60;64.60
68922;DHT22;55959;51.244;5.724;2022-11-06T10:45:08;14.70;64.50
68922;DHT22;55959;51.244;5.724;2022-11-06T10:47:44;14.70;63.80
68922;DHT22;55959;51.244;5.724;2022-11-06T10:50:14;14.70;63.80
68922;DHT22;55959;51.244;5.724;2022-11-06T10:58:05;14.80;63.20
68922;DHT22;55959;51.244;5.724;2022-11-06T11:00:39;14.80;63.20
68922;DHT22;55959;51.244;5.724;2022-11-06T11:05:43;14.90;62.80
68922;DHT22;55959;51.244;5.724;2022-11-06T11:08:35;14.90;62.70
68922;DHT22;55959;51.244;5.724;2022-11-06T11:13:49;14.90;62.80
68922;DHT22;55959;51.244;5.724;2022-11-06T11:16:37;14.90;62.60
68922;DHT22;55959;51.244;5.724;2022-11-06T11:19:33;15.00;62.80
68922;DHT22;55959;51.244;5.724;2022-11-06T11:24:28;15.00;62.50
68922;DHT22;55959;51.244;5.724;2022-11-06T11:27:05;15.10;62.20
68922;DHT22;55959;51.244;5.724;2022-11-06T11:29:44;15.10;62.00
68922;DHT22;55959;51.244;5.724;2022-11-06T11:32:14;15.20;62.60
68922;DHT22;55959;51.244;5.724;2022-11-06T11:34:46;15.20;61.80
68922;DHT22;55959;51.244;5.724;2022-11-06T11:37:40;15.20;61.30
68922;DHT22;55959;51.244;5.724;2022-11-06T11:40:35;15.30;61.20
68922;DHT22;55959;51.244;5.724;2022-11-06T11:45:46;15.30;61.00
68922;DHT22;55959;51.244;5.724;2022-11-06T11:48:47;15.30;60.90
68922;DHT22;55959;51.244;5.724;2022-11-06T11:51:33;15.30;60.40
68922;DHT22;55959;51.244;5.724;2022-11-06T11:54:14;15.30;60.30
68922;DHT22;55959;51.244;5.724;2022-11-06T11:56:50;15.30;60.30
68922;DHT22;55959;51.244;5.724;2022-11-06T11:59:42;15.30;59.90
68922;DHT22;55959;51.244;5.724;2022-11-06T12:05:07;15.30;60.00
68922;DHT22;55959;51.244;5.724;2022-11-06T12:07:40;15.30;60.00
68922;DHT22;55959;51.244;5.724;2022-11-06T12:10:29;15.40;60.10
68922;DHT22;55959;51.244;5.724;2022-11-06T12:13:04;15.40;60.30
68922;DHT22;55959;51.244;5.724;2022-11-06T12:18:30;15.40;60.00
68922;DHT22;55959;51.244;5.724;2022-11-06T12:24:02;15.40;59.80
68922;DHT22;55959;51.244;5.724;2022-11-06T12:26:53;15.40;59.70
68922;DHT22;55959;51.244;5.724;2022-11-06T12:29:48;15.40;59.80
68922;DHT22;55959;51.244;5.724;2022-11-06T12:33:18;15.40;59.70
68922;DHT22;55959;51.244;5.724;2022-11-06T12:35:58;15.50;59.00
68922;DHT22;55959;51.244;5.724;2022-11-06T12:41:33;15.30;58.50
68922;DHT22;55959;51.244;5.724;2022-11-06T12:44:00;15.30;58.50
68922;DHT22;55959;51.244;5.724;2022-11-06T13:01:01;15.10;58.50
68922;DHT22;55959;51.244;5.724;2022-11-06T13:10:37;15.20;58.20
68922;DHT22;55959;51.244;5.724;2022-11-06T13:16:18;15.10;58.40
68922;DHT22;55959;51.244;5.724;2022-11-06T13:18:55;15.10;58.50
68922;DHT22;55959;51.244;5.724;2022-11-06T13:24:11;15.10;58.30
68922;DHT22;55959;51.244;5.724;2022-11-06T13:29:40;15.00;58.20
68922;DHT22;55959;51.244;5.724;2022-11-06T13:32:19;15.00;58.30
68922;DHT22;55959;51.244;5.724;2022-11-06T13:34:49;15.00;58.10
68922;DHT22;55959;51.244;5.724;2022-11-06T13:37:21;15.00;58.10
68922;DHT22;55959;51.244;5.724;2022-11-06T13:43:14;14.90;58.20
68922;DHT22;55959;51.244;5.724;2022-11-06T13:48:52;14.90;59.00
68922;DHT22;55959;51.244;5.724;2022-11-06T13:51:53;14.80;59.40
68922;DHT22;55959;51.244;5.724;2022-11-06T13:57:16;14.80;59.50
68922;DHT22;55959;51.244;5.724;2022-11-06T14:08:28;14.60;60.60
68922;DHT22;55959;51.244;5.724;2022-11-06T14:11:00;14.50;60.90
68922;DHT22;55959;51.244;5.724;2022-11-06T14:13:33;14.60;61.20
68922;DHT22;55959;51.244;5.724;2022-11-06T14:16:05;14.50;61.40
68922;DHT22;55959;51.244;5.724;2022-11-06T14:18:54;14.50;61.40
68922;DHT22;55959;51.244;5.724;2022-11-06T14:24:31;14.40;62.00
68922;DHT22;55959;51.244;5.724;2022-11-06T14:27:00;14.30;62.20
68922;DHT22;55959;51.244;5.724;2022-11-06T14:34:43;14.20;63.30
68922;DHT22;55959;51.244;5.724;2022-11-06T14:42:32;14.00;64.20
68922;DHT22;55959;51.244;5.724;2022-11-06T14:47:36;14.00;64.60
68922;DHT22;55959;51.244;5.724;2022-11-06T14:57:54;13.90;65.50
68922;DHT22;55959;51.244;5.724;2022-11-06T15:00:52;13.90;65.80
68922;DHT22;55959;51.244;5.724;2022-11-06T15:16:35;13.70;66.70
68922;DHT22;55959;51.244;5.724;2022-11-06T15:19:39;13.60;67.60
68922;DHT22;55959;51.244;5.724;2022-11-06T15:22:22;13.50;66.80
68922;DHT22;55959;51.244;5.724;2022-11-06T15:27:44;13.40;67.20
68922;DHT22;55959;51.244;5.724;2022-11-06T15:30:15;13.30;67.30
68922;DHT22;55959;51.244;5.724;2022-11-06T15:32:43;13.30;67.40
68922;DHT22;55959;51.244;5.724;2022-11-06T15:35:18;13.30;67.60
68922;DHT22;55959;51.244;5.724;2022-11-06T15:38:01;13.20;67.90
68922;DHT22;55959;51.244;5.724;2022-11-06T15:40:34;13.20;68.00
68922;DHT22;55959;51.244;5.724;2022-11-06T15:46:23;13.20;68.30
68922;DHT22;55959;51.244;5.724;2022-11-06T15:49:26;13.10;68.40
68922;DHT22;55959;51.244;5.724;2022-11-06T15:52:00;13.00;68.40
68922;DHT22;55959;51.244;5.724;2022-11-06T15:54:41;13.00;68.50
68922;DHT22;55959;51.244;5.724;2022-11-06T15:57:20;13.00;68.60
68922;DHT22;55959;51.244;5.724;2022-11-06T16:02:56;13.00;68.90
68922;DHT22;55959;51.244;5.724;2022-11-06T16:05:28;13.00;69.10
68922;DHT22;55959;51.244;5.724;2022-11-06T16:07:56;12.90;69.10
68922;DHT22;55959;51.244;5.724;2022-11-06T16:10:24;12.90;69.10
68922;DHT22;55959;51.244;5.724;2022-11-06T16:12:50;12.90;69.20
68922;DHT22;55959;51.244;5.724;2022-11-06T16:18:23;12.90;69.40
68922;DHT22;55959;51.244;5.724;2022-11-06T16:23:54;12.90;69.50
68922;DHT22;55959;51.244;5.724;2022-11-06T16:28:57;12.90;69.60
68922;DHT22;55959;51.244;5.724;2022-11-06T16:31:27;12.90;69.70
68922;DHT22;55959;51.244;5.724;2022-11-06T16:33:54;12.90;69.80
68922;DHT22;55959;51.244;5.724;2022-11-06T16:36:22;12.90;69.70
68922;DHT22;55959;51.244;5.724;2022-11-06T16:38:48;12.90;69.80
68922;DHT22;55959;51.244;5.724;2022-11-06T16:41:19;12.80;69.70
68922;DHT22;55959;51.244;5.724;2022-11-06T16:44:26;12.80;69.60
68922;DHT22;55959;51.244;5.724;2022-11-06T16:47:28;12.80;69.80
68922;DHT22;55959;51.244;5.724;2022-11-06T16:49:54;12.70;69.90
68922;DHT22;55959;51.244;5.724;2022-11-06T16:52:30;12.70;70.00
68922;DHT22;55959;51.244;5.724;2022-11-06T16:55:03;12.70;70.10
68922;DHT22;55959;51.244;5.724;2022-11-06T16:57:52;12.70;70.20
68922;DHT22;55959;51.244;5.724;2022-11-06T17:02:53;12.70;70.20
68922;DHT22;55959;51.244;5.724;2022-11-06T17:05:35;12.70;70.30
68922;DHT22;55959;51.244;5.724;2022-11-06T17:10:52;12.60;70.30
68922;DHT22;55959;51.244;5.724;2022-11-06T17:13:26;12.60;70.30
68922;DHT22;55959;51.244;5.724;2022-11-06T17:16:00;12.60;70.40
68922;DHT22;55959;51.244;5.724;2022-11-06T17:18:30;12.60;70.40
68922;DHT22;55959;51.244;5.724;2022-11-06T17:20:59;12.60;70.40
68922;DHT22;55959;51.244;5.724;2022-11-06T17:23:30;12.60;70.50
68922;DHT22;55959;51.244;5.724;2022-11-06T17:28:54;12.50;71.20
68922;DHT22;55959;51.244;5.724;2022-11-06T17:31:22;12.50;70.30
68922;DHT22;55959;51.244;5.724;2022-11-06T17:33:48;12.50;70.30
68922;DHT22;55959;51.244;5.724;2022-11-06T17:36:23;12.50;70.20
68922;DHT22;55959;51.244;5.724;2022-11-06T17:38:50;12.40;69.90
68922;DHT22;55959;51.244;5.724;2022-11-06T17:41:17;12.40;69.90
68922;DHT22;55959;51.244;5.724;2022-11-06T17:44:06;12.40;69.90
68922;DHT22;55959;51.244;5.724;2022-11-06T17:46:41;12.40;69.90
68922;DHT22;55959;51.244;5.724;2022-11-06T17:49:08;12.40;69.90
68922;DHT22;55959;51.244;5.724;2022-11-06T17:51:34;12.40;69.90
68922;DHT22;55959;51.244;5.724;2022-11-06T17:54:21;12.40;69.70
68922;DHT22;55959;51.244;5.724;2022-11-06T17:56:48;12.40;69.60
68922;DHT22;55959;51.244;5.724;2022-11-06T17:59:18;12.40;69.70
68922;DHT22;55959;51.244;5.724;2022-11-06T18:01:44;12.40;69.70
68922;DHT22;55959;51.244;5.724;2022-11-06T18:04:12;12.40;69.50
68922;DHT22;55959;51.244;5.724;2022-11-06T18:06:37;12.40;69.40
68922;DHT22;55959;51.244;5.724;2022-11-06T18:09:05;12.40;69.30
68922;DHT22;55959;51.244;5.724;2022-11-06T18:11:32;12.30;69.20
68922;DHT22;55959;51.244;5.724;2022-11-06T18:13:58;12.30;69.30
68922;DHT22;55959;51.244;5.724;2022-11-06T18:16:27;12.30;69.30
68922;DHT22;55959;51.244;5.724;2022-11-06T18:18:56;12.40;69.50
68922;DHT22;55959;51.244;5.724;2022-11-06T18:21:23;12.30;69.50
68922;DHT22;55959;51.244;5.724;2022-11-06T18:23:49;12.30;69.50
68922;DHT22;55959;51.244;5.724;2022-11-06T18:26:16;12.40;69.70
68922;DHT22;55959;51.244;5.724;2022-11-06T18:28:42;12.40;69.80
68922;DHT22;55959;51.244;5.724;2022-11-06T18:31:08;12.40;69.80
68922;DHT22;55959;51.244;5.724;2022-11-06T18:33:33;12.40;69.90
68922;DHT22;55959;51.244;5.724;2022-11-06T18:36:00;12.40;69.90
68922;DHT22;55959;51.244;5.724;2022-11-06T18:38:27;12.40;70.00
68922;DHT22;55959;51.244;5.724;2022-11-06T18:40:53;12.40;70.10
68922;DHT22;55959;51.244;5.724;2022-11-06T18:43:18;12.40;70.20
68922;DHT22;55959;51.244;5.724;2022-11-06T18:45:44;12.40;70.30
68922;DHT22;55959;51.244;5.724;2022-11-06T18:48:10;12.40;70.40
68922;DHT22;55959;51.244;5.724;2022-11-06T18:50:36;12.40;70.50
68922;DHT22;55959;51.244;5.724;2022-11-06T18:53:04;12.40;70.70
68922;DHT22;55959;51.244;5.724;2022-11-06T18:55:30;12.40;70.80
68922;DHT22;55959;51.244;5.724;2022-11-06T18:57:57;12.50;71.00
68922;DHT22;55959;51.244;5.724;2022-11-06T19:00:23;12.40;71.10
68922;DHT22;55959;51.244;5.724;2022-11-06T19:02:49;12.50;71.30